createdAt,value
2023-03-11T00:01:46.174Z,95448.16
2023-03-11T00:04:14.022Z,95443.00
2023-03-11T00:06:41.866Z,95463.84
2023-03-11T00:09:09.877Z,95475.09
2023-03-11T00:11:37.691Z,95478.94
2023-03-11T00:14:06.858Z,95479.06
2023-03-11T00:16:34.702Z,95472.06
2023-03-11T00:19:02.478Z,95474.50
2023-03-11T00:21:30.279Z,95484.06
2023-03-11T00:24:01.034Z,95483.06
2023-03-11T00:26:28.860Z,95482.59
2023-03-11T00:28:56.700Z,95479.66
2023-03-11T00:31:26.945Z,95484.13
2023-03-11T00:33:57.239Z,95472.81
2023-03-11T00:36:31.523Z,95466.41
2023-03-11T00:39:00.323Z,95467.81
2023-03-11T00:41:28.351Z,95470.25
2023-03-11T00:43:56.332Z,95482.16
2023-03-11T00:46:25.593Z,95480.19
2023-03-11T00:48:53.529Z,95469.72
2023-03-11T00:51:21.620Z,95477.25
2023-03-11T00:53:49.387Z,95470.84
2023-03-11T00:56:17.746Z,95470.41
2023-03-11T00:58:46.092Z,95461.00
2023-03-11T01:01:17.099Z,95465.31
2023-03-11T01:03:46.552Z,95471.13
2023-03-11T01:06:14.735Z,95463.66
2023-03-11T01:08:42.971Z,95480.66
2023-03-11T01:11:10.789Z,95473.84
2023-03-11T01:13:40.159Z,95468.63
2023-03-11T01:16:09.348Z,95470.09
2023-03-11T01:18:37.254Z,95472.81
2023-03-11T01:21:06.763Z,95469.81
2023-03-11T01:23:34.647Z,95467.13
2023-03-11T01:26:02.442Z,95468.97
2023-03-11T01:28:30.164Z,95475.69
2023-03-11T01:30:57.971Z,95444.59
2023-03-11T01:33:25.868Z,95457.88
2023-03-11T01:35:53.877Z,95448.69
2023-03-11T01:38:23.312Z,95459.34
2023-03-11T01:40:52.849Z,95461.44
2023-03-11T01:43:48.030Z,95473.53
2023-03-11T01:46:18.329Z,95465.59
2023-03-11T01:48:48.313Z,95475.78
2023-03-11T01:51:18.480Z,95458.31
2023-03-11T01:53:47.906Z,95444.22
2023-03-11T01:56:15.945Z,95452.97
2023-03-11T01:58:46.784Z,95441.38
2023-03-11T02:01:14.857Z,95446.19
2023-03-11T02:03:43.621Z,95453.97
2023-03-11T02:06:15.470Z,95445.25
2023-03-11T02:08:45.041Z,95460.56
2023-03-11T02:11:18.207Z,95451.88
2023-03-11T02:13:47.438Z,95441.00
2023-03-11T02:16:15.471Z,95437.59
2023-03-11T02:18:44.694Z,95457.75
2023-03-11T02:21:23.676Z,95430.78
2023-03-11T02:23:59.885Z,95426.44
2023-03-11T02:26:36.134Z,95422.91
2023-03-11T02:29:07.580Z,95433.50
2023-03-11T02:31:38.209Z,95439.66
2023-03-11T02:34:11.078Z,95439.31
2023-03-11T02:36:40.273Z,95453.28
2023-03-11T02:39:09.256Z,95443.91
2023-03-11T02:41:40.466Z,95457.63
2023-03-11T02:44:12.560Z,95461.81
2023-03-11T02:46:41.647Z,95469.13
2023-03-11T02:49:10.682Z,95479.50
2023-03-11T02:51:38.525Z,95475.03
2023-03-11T02:54:07.267Z,95470.88
2023-03-11T02:56:35.090Z,95463.78
2023-03-11T02:59:02.870Z,95462.69
2023-03-11T03:01:32.211Z,95454.81
2023-03-11T03:04:00.062Z,95463.13
2023-03-11T03:06:28.711Z,95444.75
2023-03-11T03:08:57.120Z,95462.66
2023-03-11T03:11:24.934Z,95457.78
2023-03-11T03:13:52.680Z,95456.84
2023-03-11T03:16:20.512Z,95445.75
2023-03-11T03:18:49.764Z,95462.41
2023-03-11T03:21:17.583Z,95463.94
2023-03-11T03:23:45.393Z,95457.59
2023-03-11T03:26:14.785Z,95463.66
2023-03-11T03:28:42.714Z,95457.69
2023-03-11T03:31:12.023Z,95453.09
2023-03-11T03:33:39.827Z,95462.41
2023-03-11T03:36:11.816Z,95440.91
2023-03-11T03:38:39.486Z,95450.59
2023-03-11T03:41:07.488Z,95448.69
2023-03-11T03:43:35.357Z,95462.50
2023-03-11T03:46:05.952Z,95454.16
2023-03-11T03:48:34.328Z,95444.78
2023-03-11T03:51:05.185Z,95469.41
2023-03-11T03:53:35.249Z,95475.66
2023-03-11T03:56:04.129Z,95474.88
2023-03-11T03:58:32.032Z,95462.44
2023-03-11T04:01:00.268Z,95468.09
2023-03-11T04:03:29.453Z,95484.09
2023-03-11T04:06:07.056Z,95469.00
2023-03-11T04:08:36.520Z,95485.16
2023-03-11T04:11:04.616Z,95484.00
2023-03-11T04:13:32.412Z,95477.50
2023-03-11T04:16:00.385Z,95482.03
2023-03-11T04:18:28.355Z,95480.34
2023-03-11T04:20:56.109Z,95470.81
2023-03-11T04:23:23.929Z,95463.38
2023-03-11T04:25:53.118Z,95482.88
2023-03-11T04:28:20.871Z,95473.16
2023-03-11T04:30:48.708Z,95477.19
2023-03-11T04:33:16.541Z,95469.09
2023-03-11T04:35:44.389Z,95480.25
2023-03-11T04:38:12.190Z,95472.19
2023-03-11T04:40:40.579Z,95474.06
2023-03-11T04:43:10.115Z,95481.97
2023-03-11T04:45:39.566Z,95483.16
2023-03-11T04:48:07.597Z,95470.59
2023-03-11T04:50:35.573Z,95481.34
2023-03-11T04:53:03.551Z,95477.31
2023-03-11T04:55:31.297Z,95492.28
2023-03-11T04:57:59.117Z,95485.00
2023-03-11T05:00:28.563Z,95503.88
2023-03-11T05:02:56.372Z,95509.72
2023-03-11T05:05:24.279Z,95493.91
2023-03-11T05:07:53.609Z,95514.19
2023-03-11T05:10:22.492Z,95516.25
2023-03-11T05:12:50.500Z,95523.94
2023-03-11T05:15:18.769Z,95505.69
2023-03-11T05:17:48.398Z,95519.50
2023-03-11T05:20:16.602Z,95518.69
2023-03-11T05:22:44.481Z,95519.06
2023-03-11T05:25:12.396Z,95507.50
2023-03-11T05:27:40.250Z,95507.69
2023-03-11T05:30:10.189Z,95529.59
2023-03-11T05:32:38.043Z,95517.03
2023-03-11T05:35:08.104Z,95526.75
2023-03-11T05:37:39.002Z,95536.91
2023-03-11T05:40:08.859Z,95538.91
2023-03-11T05:42:37.054Z,95533.00
2023-03-11T05:45:05.351Z,95536.25
2023-03-11T05:47:33.181Z,95538.47
2023-03-11T05:50:01.057Z,95531.56
2023-03-11T05:52:32.701Z,95535.03
2023-03-11T05:55:00.733Z,95529.19
2023-03-11T05:57:28.876Z,95518.63
2023-03-11T05:59:56.898Z,95506.69
2023-03-11T06:02:24.675Z,95515.19
2023-03-11T06:04:52.658Z,95511.97
2023-03-11T06:07:20.487Z,95516.22
2023-03-11T06:09:50.974Z,95524.34
2023-03-11T06:12:18.935Z,95519.69
2023-03-11T06:14:46.705Z,95521.91
2023-03-11T06:17:14.479Z,95522.91
2023-03-11T06:19:42.425Z,95521.91
2023-03-11T06:22:10.289Z,95529.78
2023-03-11T06:24:38.302Z,95530.00
2023-03-11T06:27:09.230Z,95528.78
2023-03-11T06:29:37.052Z,95552.28
2023-03-11T06:32:05.165Z,95553.13
2023-03-11T06:34:33.021Z,95552.69
2023-03-11T06:37:01.187Z,95567.66
2023-03-11T06:39:29.013Z,95581.81
2023-03-11T06:41:56.873Z,95582.50
2023-03-11T06:44:26.257Z,95571.31
2023-03-11T06:46:54.047Z,95584.31
2023-03-11T06:49:21.816Z,95581.09
2023-03-11T06:51:49.524Z,95583.72
2023-03-11T06:54:17.353Z,95583.34
2023-03-11T06:56:45.240Z,95580.25
2023-03-11T06:59:13.071Z,95606.19
2023-03-11T07:01:42.194Z,95602.13
2023-03-11T07:04:11.570Z,95612.06
2023-03-11T07:06:39.379Z,95613.31
2023-03-11T07:09:07.268Z,95615.47
2023-03-11T07:11:35.021Z,95607.97
2023-03-11T07:14:02.874Z,95638.66
2023-03-11T07:16:31.909Z,95644.56
2023-03-11T07:19:03.276Z,95637.13
2023-03-11T07:21:32.637Z,95642.75
2023-03-11T07:24:02.025Z,95638.78
2023-03-11T07:26:31.656Z,95645.09
2023-03-11T07:29:00.125Z,95638.00
2023-03-11T07:31:30.327Z,95614.03
2023-03-11T07:33:59.556Z,95635.13
2023-03-11T07:36:30.002Z,95632.88
2023-03-11T07:38:59.710Z,95630.84
2023-03-11T07:41:28.306Z,95616.69
2023-03-11T07:43:59.390Z,95615.84
2023-03-11T07:46:29.431Z,95598.81
2023-03-11T07:48:58.142Z,95603.50
2023-03-11T07:51:29.083Z,95603.72
2023-03-11T07:53:58.820Z,95618.13
2023-03-11T07:56:27.928Z,95616.53
2023-03-11T07:58:55.692Z,95630.72
2023-03-11T08:01:25.251Z,95625.91
2023-03-11T08:03:57.049Z,95631.56
2023-03-11T08:06:27.684Z,95635.41
2023-03-11T08:08:57.037Z,95635.75
2023-03-11T08:11:25.280Z,95641.69
2023-03-11T08:13:53.715Z,95632.94
2023-03-11T08:16:23.113Z,95645.72
2023-03-11T08:18:52.551Z,95643.88
2023-03-11T08:21:22.684Z,95651.09
2023-03-11T08:23:50.421Z,95660.81
2023-03-11T08:26:21.862Z,95666.88
2023-03-11T08:28:50.153Z,95675.75
2023-03-11T08:31:19.849Z,95646.19
2023-03-11T08:33:50.214Z,95688.22
2023-03-11T08:36:18.519Z,95689.28
2023-03-11T08:38:46.462Z,95687.03
2023-03-11T08:41:14.788Z,95689.50
2023-03-11T08:43:44.580Z,95681.72
2023-03-11T08:46:18.905Z,95691.56
2023-03-11T08:48:46.778Z,95685.69
2023-03-11T08:51:14.738Z,95694.56
2023-03-11T08:53:42.667Z,95694.53
2023-03-11T08:56:10.484Z,95697.72
2023-03-11T08:58:38.616Z,95705.91
2023-03-11T09:01:09.173Z,95692.94
2023-03-11T09:03:38.013Z,95693.94
2023-03-11T09:06:08.574Z,95703.94
2023-03-11T09:08:36.835Z,95697.22
2023-03-11T09:11:05.543Z,95702.66
2023-03-11T09:13:33.313Z,95698.22
2023-03-11T09:16:01.356Z,95703.72
2023-03-11T09:18:30.496Z,95715.13
2023-03-11T09:20:59.197Z,95695.28
2023-03-11T09:23:27.212Z,95704.00
2023-03-11T09:25:55.026Z,95717.81
2023-03-11T09:28:22.802Z,95716.56
2023-03-11T09:30:50.580Z,95707.69
2023-03-11T09:33:18.613Z,95718.69
2023-03-11T09:35:47.761Z,95725.50
2023-03-11T09:38:15.737Z,95718.63
2023-03-11T09:40:58.959Z,95732.19
2023-03-11T09:43:40.942Z,95738.31
2023-03-11T09:46:27.301Z,95735.75
2023-03-11T09:49:00.777Z,95743.91
2023-03-11T09:51:34.064Z,95744.50
2023-03-11T09:54:05.579Z,95736.59
2023-03-11T09:56:37.102Z,95740.81
2023-03-11T09:59:09.019Z,95740.22
2023-03-11T10:01:42.692Z,95747.94
2023-03-11T10:04:14.308Z,95730.09
2023-03-11T10:06:46.824Z,95731.03
2023-03-11T10:09:30.180Z,95746.31
2023-03-11T10:12:10.680Z,95750.41
2023-03-11T10:14:49.398Z,95724.00
2023-03-11T10:17:32.846Z,95745.53
2023-03-11T10:20:07.442Z,95750.59
2023-03-11T10:22:45.080Z,95739.44
2023-03-11T10:25:17.162Z,95741.25
2023-03-11T10:27:47.176Z,95738.97
2023-03-11T10:30:24.514Z,95729.59
2023-03-11T10:32:58.505Z,95738.22
2023-03-11T10:35:33.540Z,95741.72
2023-03-11T10:38:11.343Z,95737.09
2023-03-11T10:40:41.780Z,95738.13
2023-03-11T10:43:14.474Z,95748.25
2023-03-11T10:45:44.860Z,95738.56
2023-03-11T10:48:14.420Z,95735.97
2023-03-11T10:50:50.834Z,95751.09
2023-03-11T10:53:21.758Z,95739.91
2023-03-11T10:55:51.634Z,95748.94
2023-03-11T10:58:21.750Z,95740.06
2023-03-11T11:01:02.269Z,95744.09
2023-03-11T11:03:30.775Z,95737.28
2023-03-11T11:06:02.284Z,95749.53
2023-03-11T11:08:32.392Z,95754.63
2023-03-11T11:11:01.831Z,95748.31
2023-03-11T11:13:32.541Z,95744.72
2023-03-11T11:16:02.262Z,95746.09
2023-03-11T11:18:34.550Z,95736.44
2023-03-11T11:21:06.517Z,95735.31
2023-03-11T11:23:41.104Z,95747.59
2023-03-11T11:26:17.264Z,95743.06
2023-03-11T11:28:45.357Z,95722.81
2023-03-11T11:31:23.346Z,95734.84
2023-03-11T11:33:53.735Z,95730.88
2023-03-11T11:36:24.224Z,95739.13
2023-03-11T11:38:54.963Z,95725.38
2023-03-11T11:41:25.328Z,95723.69
2023-03-11T11:43:55.141Z,95726.97
2023-03-11T11:46:30.168Z,95726.41
2023-03-11T11:49:09.852Z,95715.72
2023-03-11T11:51:42.362Z,95708.38
2023-03-11T11:54:18.117Z,95713.94
2023-03-11T11:56:46.635Z,95697.97
2023-03-11T11:59:19.918Z,95715.31
2023-03-11T12:01:59.345Z,95708.63
2023-03-11T12:04:49.154Z,95704.47
2023-03-11T12:07:28.988Z,95694.03
2023-03-11T12:10:22.168Z,95693.53
2023-03-11T12:13:06.768Z,95695.81
2023-03-11T12:15:40.174Z,95686.78
2023-03-11T12:18:18.763Z,95695.06
2023-03-11T12:20:53.291Z,95691.00
2023-03-11T12:23:27.176Z,95685.78
2023-03-11T12:26:06.199Z,95683.19
2023-03-11T12:28:43.050Z,95665.25
2023-03-11T12:31:13.278Z,95671.88
2023-03-11T12:33:43.697Z,95684.56
2023-03-11T12:36:24.564Z,95680.22
2023-03-11T12:38:55.091Z,95674.16
2023-03-11T12:41:33.665Z,95688.78
2023-03-11T12:44:04.258Z,95689.63
2023-03-11T12:47:11.562Z,95682.16
2023-03-11T12:49:41.437Z,95671.56
2023-03-11T12:52:30.473Z,95670.63
2023-03-11T12:55:25.657Z,95670.97
2023-03-11T12:58:02.891Z,95658.13
2023-03-11T13:00:48.306Z,95658.81
2023-03-11T13:03:33.920Z,95649.94
2023-03-11T13:06:13.937Z,95657.75
2023-03-11T13:08:47.399Z,95664.00
2023-03-11T13:11:35.987Z,95664.81
2023-03-11T13:14:28.569Z,95662.75
2023-03-11T13:16:57.287Z,95651.72
2023-03-11T13:19:49.980Z,95660.00
2023-03-11T13:22:44.465Z,95659.50
2023-03-11T13:25:34.070Z,95660.56
2023-03-11T13:28:29.130Z,95664.47
2023-03-11T13:31:11.846Z,95666.81
2023-03-11T13:33:51.024Z,95661.41
2023-03-11T13:36:33.522Z,95675.44
2023-03-11T13:39:34.591Z,95665.22
2023-03-11T13:42:04.690Z,95671.38
2023-03-11T13:44:36.369Z,95672.88
2023-03-11T13:47:10.317Z,95673.78
2023-03-11T13:49:43.981Z,95670.06
2023-03-11T13:52:16.910Z,95681.25
2023-03-11T13:54:49.212Z,95686.69
2023-03-11T13:57:35.937Z,95685.06
2023-03-11T14:00:17.817Z,95681.94
2023-03-11T14:02:51.134Z,95695.69
2023-03-11T14:05:24.342Z,95688.25
2023-03-11T14:07:52.465Z,95698.38
2023-03-11T14:10:23.899Z,95702.78
2023-03-11T14:12:52.503Z,95691.66
2023-03-11T14:15:24.210Z,95696.03
2023-03-11T14:17:55.126Z,95690.75
2023-03-11T14:20:25.402Z,95690.91
2023-03-11T14:22:55.139Z,95702.09
2023-03-11T14:25:27.341Z,95699.78
2023-03-11T14:27:58.899Z,95701.19
2023-03-11T14:30:28.960Z,95706.19
2023-03-11T14:33:00.344Z,95706.88
2023-03-11T14:35:28.547Z,95701.78
2023-03-11T14:37:56.816Z,95705.06
2023-03-11T14:40:27.671Z,95712.63
2023-03-11T14:42:58.453Z,95710.47
2023-03-11T14:45:29.698Z,95709.59
2023-03-11T14:48:05.243Z,95713.63
2023-03-11T14:50:35.358Z,95703.81
2023-03-11T14:53:06.601Z,95703.53
2023-03-11T14:55:40.673Z,95700.00
2023-03-11T14:58:16.184Z,95702.50
2023-03-11T15:00:50.088Z,95707.28
2023-03-11T15:03:24.548Z,95706.69
2023-03-11T15:05:55.999Z,95717.81
2023-03-11T15:08:27.253Z,95722.78
2023-03-11T15:11:18.868Z,95711.25
2023-03-11T15:13:50.673Z,95719.16
2023-03-11T15:16:29.948Z,95733.75
2023-03-11T15:19:01.736Z,95728.16
2023-03-11T15:21:30.866Z,95726.25
2023-03-11T15:24:04.952Z,95707.44
2023-03-11T15:26:35.572Z,95705.06
2023-03-11T15:29:13.074Z,95716.44
2023-03-11T15:31:42.651Z,95713.41
2023-03-11T15:34:26.225Z,95709.22
2023-03-11T15:37:07.603Z,95718.03
2023-03-11T15:39:45.095Z,95726.16
2023-03-11T15:42:16.485Z,95721.66
2023-03-11T15:44:57.997Z,95710.78
2023-03-11T15:47:25.884Z,95724.03
2023-03-11T15:49:55.088Z,95725.28
2023-03-11T15:52:22.975Z,95724.22
2023-03-11T15:54:55.764Z,95738.13
2023-03-11T15:57:27.826Z,95730.03
2023-03-11T15:59:58.163Z,95725.78
2023-03-11T16:02:27.660Z,95732.69
2023-03-11T16:04:57.582Z,95728.06
2023-03-11T16:07:38.828Z,95745.22
2023-03-11T16:10:08.524Z,95751.94
2023-03-11T16:12:36.590Z,95749.81
2023-03-11T16:15:05.074Z,95747.28
2023-03-11T16:17:48.606Z,95739.94
2023-03-11T16:20:19.482Z,95746.44
2023-03-11T16:22:49.110Z,95751.22
2023-03-11T16:25:22.853Z,95768.13
2023-03-11T16:27:52.440Z,95771.00
2023-03-11T16:30:21.168Z,95757.00
2023-03-11T16:32:49.148Z,95767.63
2023-03-11T16:35:18.855Z,95777.16
2023-03-11T16:37:47.105Z,95794.41
2023-03-11T16:40:18.370Z,95790.66
2023-03-11T16:42:46.653Z,95786.34
2023-03-11T16:45:17.267Z,95788.41
2023-03-11T16:47:45.342Z,95781.34
2023-03-11T16:50:13.424Z,95791.44
2023-03-11T16:52:42.701Z,95781.88
2023-03-11T16:55:11.085Z,95792.09
2023-03-11T16:57:39.524Z,95791.25
2023-03-11T17:00:09.808Z,95802.63
2023-03-11T17:02:37.701Z,95798.22
2023-03-11T17:05:07.004Z,95807.91
2023-03-11T17:07:37.570Z,95808.75
2023-03-11T17:10:10.060Z,95808.56
2023-03-11T17:12:38.387Z,95826.47
2023-03-11T17:15:08.464Z,95824.47
2023-03-11T17:17:36.636Z,95821.06
2023-03-11T17:20:06.200Z,95839.56
2023-03-11T17:22:33.983Z,95833.03
2023-03-11T17:25:02.107Z,95824.13
2023-03-11T17:27:32.605Z,95840.38
2023-03-11T17:30:00.965Z,95842.00
2023-03-11T17:32:29.292Z,95852.78
2023-03-11T17:34:57.141Z,95854.78
2023-03-11T17:37:25.179Z,95851.16
2023-03-11T17:39:53.255Z,95872.69
2023-03-11T17:42:21.263Z,95853.22
2023-03-11T17:44:52.184Z,95859.50
2023-03-11T17:47:21.402Z,95875.34
2023-03-11T17:49:49.844Z,95877.63
2023-03-11T17:52:17.661Z,95893.06
2023-03-11T17:54:45.873Z,95873.94
2023-03-11T17:57:13.665Z,95900.16
2023-03-11T17:59:41.447Z,95901.81
2023-03-11T18:02:14.383Z,95907.06
2023-03-11T18:04:45.928Z,95909.53
2023-03-11T18:07:13.740Z,95866.22
2023-03-11T18:09:41.728Z,95908.09
2023-03-11T18:12:09.680Z,95905.69
2023-03-11T18:14:37.772Z,95913.19
2023-03-11T18:17:05.926Z,95904.44
2023-03-11T18:19:35.420Z,95907.09
2023-03-11T18:22:03.850Z,95901.19
2023-03-11T18:24:31.684Z,95917.03
2023-03-11T18:26:59.686Z,95922.13
2023-03-11T18:29:27.502Z,95926.22
2023-03-11T18:31:56.275Z,95931.69
2023-03-11T18:34:24.104Z,95921.50
2023-03-11T18:36:53.247Z,95920.28
2023-03-11T18:39:21.152Z,95910.53
2023-03-11T18:41:48.969Z,95923.75
2023-03-11T18:44:16.842Z,95938.19
2023-03-11T18:46:44.715Z,95926.38
2023-03-11T18:49:13.926Z,95945.94
2023-03-11T18:51:41.983Z,95941.03
2023-03-11T18:54:11.585Z,95922.16
2023-03-11T18:56:39.456Z,95894.28
2023-03-11T18:59:08.532Z,95943.09
2023-03-11T19:01:36.317Z,95939.41
2023-03-11T19:04:04.154Z,95949.59
2023-03-11T19:06:32.036Z,95934.13
2023-03-11T19:08:59.862Z,95949.78
2023-03-11T19:11:29.430Z,95943.28
2023-03-11T19:13:57.301Z,95954.06
2023-03-11T19:16:26.731Z,95944.91
2023-03-11T19:18:55.660Z,95957.28
2023-03-11T19:21:24.235Z,95937.78
2023-03-11T19:23:55.117Z,95963.00
2023-03-11T19:26:33.746Z,95965.06
2023-03-11T19:29:06.855Z,95961.38
2023-03-11T19:31:34.729Z,95965.25
2023-03-11T19:34:02.917Z,95966.66
2023-03-11T19:36:30.688Z,95958.75
2023-03-11T19:38:58.519Z,95963.84
2023-03-11T19:41:26.325Z,95964.03
2023-03-11T19:43:54.273Z,95959.94
2023-03-11T19:46:24.163Z,95970.72
2023-03-11T19:48:56.531Z,95957.09
2023-03-11T19:51:26.668Z,95973.59
2023-03-11T19:53:56.266Z,95977.03
2023-03-11T19:56:25.485Z,95980.88
2023-03-11T19:58:53.258Z,95985.13
2023-03-11T20:01:25.342Z,95999.59
2023-03-11T20:03:53.527Z,95997.91
2023-03-11T20:06:22.730Z,95997.97
2023-03-11T20:08:51.405Z,96003.47
2023-03-11T20:11:19.227Z,96009.13
2023-03-11T20:13:48.659Z,95999.78
2023-03-11T20:16:18.859Z,96004.09
2023-03-11T20:18:50.118Z,96012.22
2023-03-11T20:21:18.771Z,96007.72
2023-03-11T20:23:48.816Z,96007.13
2023-03-11T20:26:18.546Z,96006.09
2023-03-11T20:28:46.435Z,96009.19
2023-03-11T20:31:18.026Z,96014.03
2023-03-11T20:33:46.337Z,96006.53
2023-03-11T20:36:18.008Z,96015.88
2023-03-11T20:38:45.789Z,96019.53
2023-03-11T20:41:13.558Z,96016.69
2023-03-11T20:43:41.796Z,96029.91
2023-03-11T20:46:11.608Z,96009.16
2023-03-11T20:48:40.218Z,96019.97
2023-03-11T20:51:10.339Z,96032.75
2023-03-11T20:53:39.986Z,96023.44
2023-03-11T20:56:10.457Z,96014.84
2023-03-11T20:58:38.563Z,96024.41
2023-03-11T21:01:12.711Z,96000.97
2023-03-11T21:03:40.886Z,96035.34
2023-03-11T21:06:15.303Z,96038.00
2023-03-11T21:08:44.683Z,96032.09
2023-03-11T21:11:12.898Z,96036.59
2023-03-11T21:13:40.973Z,96050.41
2023-03-11T21:16:10.114Z,96041.66
2023-03-11T21:18:38.330Z,96044.34
2023-03-11T21:21:08.477Z,96040.88
2023-03-11T21:23:36.408Z,96043.91
2023-03-11T21:26:06.747Z,96040.06
2023-03-11T21:28:35.298Z,96038.63
2023-03-11T21:31:05.721Z,96037.63
2023-03-11T21:33:34.172Z,96044.75
2023-03-11T21:36:02.414Z,96054.13
2023-03-11T21:38:31.892Z,96041.06
2023-03-11T21:41:09.042Z,96054.50
2023-03-11T21:43:37.594Z,96062.13
2023-03-11T21:46:06.205Z,96061.75
2023-03-11T21:48:34.686Z,96062.16
2023-03-11T21:51:02.833Z,96076.44
2023-03-11T21:53:30.712Z,96063.78
2023-03-11T21:55:59.709Z,96071.03
2023-03-11T21:58:30.248Z,96056.84
2023-03-11T22:00:58.151Z,96066.63
2023-03-11T22:03:26.186Z,96064.81
2023-03-11T22:06:01.022Z,96053.00
2023-03-11T22:08:29.128Z,96051.56
2023-03-11T22:10:57.327Z,96073.38
2023-03-11T22:13:25.325Z,96065.72
2023-03-11T22:15:54.810Z,96073.16
2023-03-11T22:18:22.648Z,96068.28
2023-03-11T22:20:50.822Z,96063.00
2023-03-11T22:23:18.566Z,96069.72
2023-03-11T22:25:46.302Z,96067.91
2023-03-11T22:28:14.818Z,96059.72
2023-03-11T22:30:42.972Z,96067.06
2023-03-11T22:33:12.153Z,96075.22
2023-03-11T22:35:40.059Z,95991.75
2023-03-11T22:38:07.994Z,96068.22
2023-03-11T22:40:35.819Z,96063.75
2023-03-11T22:43:03.627Z,96087.00
2023-03-11T22:45:31.383Z,96079.88
2023-03-11T22:47:59.238Z,96091.72
2023-03-11T22:50:28.591Z,96080.44
2023-03-11T22:52:56.463Z,96093.06
2023-03-11T22:55:24.327Z,96078.81
2023-03-11T22:57:52.771Z,96076.13
2023-03-11T23:00:23.172Z,96088.97
2023-03-11T23:02:55.537Z,96084.94
2023-03-11T23:05:24.330Z,96091.06
2023-03-11T23:07:53.638Z,96089.44
2023-03-11T23:10:21.720Z,96095.56
2023-03-11T23:12:49.777Z,96094.78
2023-03-11T23:15:19.803Z,96106.09
2023-03-11T23:17:47.657Z,96107.00
2023-03-11T23:20:17.263Z,96086.44
2023-03-11T23:22:45.100Z,96106.59
2023-03-11T23:25:16.961Z,96100.91
2023-03-11T23:27:47.007Z,96103.38
2023-03-11T23:30:17.250Z,96084.41
2023-03-11T23:32:45.672Z,96109.03
2023-03-11T23:35:14.220Z,96094.38
2023-03-11T23:37:42.211Z,96105.91
2023-03-11T23:40:11.498Z,96111.00
2023-03-11T23:42:40.644Z,96108.16
2023-03-11T23:45:10.340Z,96111.44
2023-03-11T23:47:38.162Z,96102.09
2023-03-11T23:50:06.956Z,96107.13
2023-03-11T23:52:34.936Z,96094.13
2023-03-11T23:55:02.964Z,96107.78
2023-03-11T23:57:30.742Z,96096.81
